Time;durP1;ratioP1;P1;durP2;ratioP2;P2;SDS_P1;SDS_P2;PMS_P1;PMS_P2;Temp;Humidity;BMP_temperature;BMP_pressure;BME280_temperature;BME280_humidity;BME280_pressure;Samples;Min_cycle;Max_cycle;Signal;HPM_P1;HPM_P2
2022/08/27 00:00:04;;;;;;;3.50;3.20;;;;;;;;;;1654847;29;22441;-58
2022/08/27 00:00:55;;;;;;;3.67;3.38;;;;;;;;;;1657445;29;22313;-59
2022/08/27 00:01:47;;;;;;;3.80;2.88;;;;;;;;;;1655191;29;21687;-58
2022/08/27 00:02:38;;;;;;;3.53;2.92;;;;;;;;;;1654591;29;21654;-58
2022/08/27 00:03:32;;;;;;;3.28;3.08;;;;;;;;;;1654328;29;21663;-58
2022/08/27 00:04:23;;;;;;;3.45;3.20;;;;;;;;;;1655108;29;21729;-59
2022/08/27 00:05:18;;;;;;;2.90;2.70;;;;;;;;;;1655167;29;22524;-60
2022/08/27 00:06:12;;;;;;;5.28;3.00;;;;;;;;;;1650468;29;22503;-59
2022/08/27 00:07:05;;;;;;;3.15;2.80;;;;;;;;;;1642440;29;21705;-59
2022/08/27 00:07:57;;;;;;;2.35;2.25;;;;;;;;;;1650760;29;21757;-59
2022/08/27 00:08:50;;;;;;;2.97;2.78;;;;;;;;;;1652897;29;21770;-59
2022/08/27 00:09:42;;;;;;;2.60;2.47;;;;;;;;;;1656111;29;21976;-59
2022/08/27 00:10:34;;;;;;;2.90;2.70;;;;;;;;;;1655567;29;22475;-59
2022/08/27 00:11:25;;;;;;;2.83;2.53;;;;;;;;;;1655727;29;21610;-58
2022/08/27 00:12:17;;;;;;;2.88;2.67;;;;;;;;;;1656311;29;21757;-59
2022/08/27 00:13:09;;;;;;;2.53;2.42;;;;;;;;;;1655520;29;22014;-59
2022/08/27 00:14:01;;;;;;;4.95;2.25;;;;;;;;;;1654493;29;21660;-59
2022/08/27 00:14:53;;;;;;;2.65;2.45;;;;;;;;;;1656006;29;21594;-58
2022/08/27 00:15:45;;;;;;;2.35;2.20;;;;;;;;;;1655347;29;21674;-58
2022/08/27 00:16:36;;;;;;;2.85;2.65;;;;;;;;;;1654841;29;21593;-59
2022/08/27 00:17:29;;;;;;;6.03;2.50;;;;;;;;;;1656027;29;21572;-58
2022/08/27 00:18:20;;;;;;;2.33;2.15;;;;;;;;;;1654618;29;22156;-59
2022/08/27 00:19:13;;;;;;;2.80;2.60;;;;;;;;;;1655334;29;22202;-59
2022/08/27 00:20:07;;;;;;;2.63;2.50;;;;;;;;;;1655514;29;21711;-59
2022/08/27 00:20:59;;;;;;;2.22;2.13;;;;;;;;;;1651459;29;22529;-59
2022/08/27 00:21:50;;;;;;;3.95;2.20;;;;;;;;;;1655276;29;21637;-58
2022/08/27 00:22:43;;;;;;;2.17;2.00;;;;;;;;;;1655501;29;21643;-59
2022/08/27 00:23:34;;;;;;;2.20;2.10;;;;;;;;;;1653603;29;21675;-58
2022/08/27 00:24:26;;;;;;;2.50;2.40;;;;;;;;;;1654579;29;21736;-59
2022/08/27 00:25:19;;;;;;;1.95;1.85;;;;;;;;;;1656184;29;22639;-59
2022/08/27 00:26:12;;;;;;;2.08;1.98;;;;;;;;;;1653938;29;22654;-58
2022/08/27 00:27:04;;;;;;;2.10;1.90;;;;;;;;;;1654591;29;21813;-59
2022/08/27 00:27:56;;;;;;;2.40;1.88;;;;;;;;;;1656284;29;22579;-59
2022/08/27 00:28:47;;;;;;;2.10;2.00;;;;;;;;;;1655407;29;21986;-59
2022/08/27 00:29:39;;;;;;;2.00;1.90;;;;;;;;;;1654515;29;22587;-59
2022/08/27 00:30:31;;;;;;;1.92;1.83;;;;;;;;;;1656021;29;21764;-59
2022/08/27 00:31:23;;;;;;;2.78;1.90;;;;;;;;;;1655390;29;21617;-59
2022/08/27 00:32:15;;;;;;;1.88;1.77;;;;;;;;;;1655282;29;22608;-59
2022/08/27 00:33:07;;;;;;;2.08;1.95;;;;;;;;;;1655665;29;21989;-58
2022/08/27 00:33:59;;;;;;;2.05;1.70;;;;;;;;;;1655170;29;21593;-59
2022/08/27 00:34:52;;;;;;;1.90;1.80;;;;;;;;;;1654878;29;21766;-59
2022/08/27 00:35:43;;;;;;;1.80;1.70;;;;;;;;;;1656054;29;22520;-59
2022/08/27 00:36:36;;;;;;;1.70;1.60;;;;;;;;;;1655849;29;21629;-58
2022/08/27 00:37:27;;;;;;;1.60;1.50;;;;;;;;;;1655209;29;21671;-59
2022/08/27 00:38:21;;;;;;;3.28;1.63;;;;;;;;;;1654209;29;21613;-58
2022/08/27 00:39:12;;;;;;;1.70;1.60;;;;;;;;;;1656068;29;21619;-59
2022/08/27 00:40:07;;;;;;;1.58;1.48;;;;;;;;;;1654667;29;22734;-58
2022/08/27 00:41:00;;;;;;;1.63;1.52;;;;;;;;;;1654427;29;21780;-58
2022/08/27 00:41:52;;;;;;;1.83;1.73;;;;;;;;;;1656156;29;21657;-59
2022/08/27 00:42:44;;;;;;;1.75;1.65;;;;;;;;;;1654781;29;22425;-58
2022/08/27 00:43:47;;;;;;;1.83;1.73;;;;;;;;;;1654032;29;21967;-58
2022/08/27 00:44:39;;;;;;;1.60;1.50;;;;;;;;;;1649783;29;21615;-59
2022/08/27 00:45:37;;;;;;;1.60;1.50;;;;;;;;;;1654662;29;22633;-59
2022/08/27 00:46:37;;;;;;;1.30;1.27;;;;;;;;;;1654237;29;22542;-58
2022/08/27 00:47:33;;;;;;;1.70;1.60;;;;;;;;;;1656118;29;22519;-59
2022/08/27 00:48:29;;;;;;;1.50;1.40;;;;;;;;;;1654657;29;21739;-58
2022/08/27 00:49:27;;;;;;;1.35;1.25;;;;;;;;;;1654936;29;21629;-59
2022/08/27 00:50:32;;;;;;;1.65;1.55;;;;;;;;;;1655871;29;21688;-58
2022/08/27 00:51:26;;;;;;;1.42;1.42;;;;;;;;;;1653435;29;21709;-59
2022/08/27 00:52:21;;;;;;;1.60;1.50;;;;;;;;;;1655898;29;22157;-58
2022/08/27 00:53:19;;;;;;;1.02;1.02;;;;;;;;;;1654576;29;21652;-58
2022/08/27 00:54:11;;;;;;;1.52;1.42;;;;;;;;;;1654071;29;21590;-59
2022/08/27 00:55:08;;;;;;;1.50;1.40;;;;;;;;;;1655463;29;21804;-59
2022/08/27 00:56:06;;;;;;;1.65;1.35;;;;;;;;;;1655722;29;21625;-59
2022/08/27 00:56:59;;;;;;;1.25;1.15;;;;;;;;;;1655413;29;21670;-58
2022/08/27 00:58:00;;;;;;;2.17;1.40;;;;;;;;;;1654180;29;22102;-58
2022/08/27 00:58:54;;;;;;;1.25;1.20;;;;;;;;;;1653373;29;21620;-59
2022/08/27 00:59:46;;;;;;;1.45;1.40;;;;;;;;;;1655951;29;22307;-59
2022/08/27 01:00:38;;;;;;;1.35;1.25;;;;;;;;;;1653942;29;21725;-59
2022/08/27 01:01:32;;;;;;;1.50;1.10;;;;;;;;;;1655590;29;21668;-59
2022/08/27 01:02:29;;;;;;;1.40;1.30;;;;;;;;;;1655762;29;21822;-59
2022/08/27 01:03:20;;;;;;;1.00;1.00;;;;;;;;;;1648194;29;22564;-57
2022/08/27 01:04:12;;;;;;;1.05;1.05;;;;;;;;;;1649506;29;21635;-58
2022/08/27 01:05:08;;;;;;;1.40;1.30;;;;;;;;;;1652741;29;21753;-59
2022/08/27 01:06:04;;;;;;;1.50;1.40;;;;;;;;;;1653083;29;21689;-59
2022/08/27 01:06:56;;;;;;;1.35;1.25;;;;;;;;;;1655866;29;21688;-60
2022/08/27 01:07:53;;;;;;;1.92;1.30;;;;;;;;;;1655868;29;21622;-59
2022/08/27 01:08:50;;;;;;;1.27;1.17;;;;;;;;;;1653947;29;21644;-59
2022/08/27 01:09:44;;;;;;;1.58;1.45;;;;;;;;;;1655182;29;21620;-59
2022/08/27 01:10:37;;;;;;;1.02;1.02;;;;;;;;;;1655819;29;21633;-59
2022/08/27 01:11:30;;;;;;;1.10;1.05;;;;;;;;;;1652964;29;21650;-59
2022/08/27 01:12:21;;;;;;;1.20;1.10;;;;;;;;;;1656070;29;22464;-58
2022/08/27 01:13:21;;;;;;;1.10;0.98;;;;;;;;;;1654782;29;21682;-59
2022/08/27 01:14:13;;;;;;;;;;;;;;;;;;1654684;29;22447;-59
2022/08/27 01:15:13;;;;;;;1.15;1.08;;;;;;;;;;1655579;29;21863;-59
2022/08/27 01:16:06;;;;;;;1.23;1.13;;;;;;;;;;1655974;29;21599;-59
2022/08/27 01:17:01;;;;;;;9.02;1.15;;;;;;;;;;1654061;29;21804;-59
2022/08/27 01:17:53;;;;;;;1.20;1.10;;;;;;;;;;1649030;29;22657;-59
2022/08/27 01:18:45;;;;;;;1.25;0.90;;;;;;;;;;1644567;29;21677;-60
2022/08/27 01:19:42;;;;;;;1.23;1.02;;;;;;;;;;1651942;29;22535;-59
2022/08/27 01:20:43;;;;;;;0.95;0.95;;;;;;;;;;1649529;29;22542;-59
2022/08/27 01:21:48;;;;;;;1.10;1.05;;;;;;;;;;1649885;29;21658;-60
2022/08/27 01:22:52;;;;;;;0.95;0.95;;;;;;;;;;1652486;29;22575;-59
2022/08/27 01:23:50;;;;;;;1.10;1.10;;;;;;;;;;1652964;29;22293;-60
2022/08/27 01:24:47;;;;;;;2.08;1.40;;;;;;;;;;1653928;29;21649;-59
2022/08/27 01:25:41;;;;;;;0.90;0.90;;;;;;;;;;1655810;29;22607;-59
2022/08/27 01:26:33;;;;;;;0.93;0.90;;;;;;;;;;1655785;29;22016;-57
2022/08/27 01:27:29;;;;;;;1.10;1.10;;;;;;;;;;1653489;29;22018;-59
2022/08/27 01:28:22;;;;;;;1.35;1.27;;;;;;;;;;1656177;29;22138;-58
2022/08/27 01:29:14;;;;;;;0.88;0.88;;;;;;;;;;1655768;29;22603;-58
2022/08/27 01:30:09;;;;;;;0.90;0.90;;;;;;;;;;1653026;29;21636;-59
2022/08/27 01:31:01;;;;;;;0.82;0.82;;;;;;;;;;1648346;29;22107;-58
2022/08/27 01:31:53;;;;;;;2.90;1.30;;;;;;;;;;1648646;29;21612;-58
2022/08/27 01:32:48;;;;;;;1.05;0.95;;;;;;;;;;1651181;29;21689;-58
2022/08/27 01:33:40;;;;;;;1.20;1.10;;;;;;;;;;1654081;29;21671;-58
2022/08/27 01:34:32;;;;;;;1.00;1.00;;;;;;;;;;1649359;29;21602;-58
2022/08/27 01:35:24;;;;;;;0.80;0.80;;;;;;;;;;1653278;29;21657;-59
2022/08/27 01:36:16;;;;;;;0.82;0.82;;;;;;;;;;1655949;29;22561;-59
2022/08/27 01:37:09;;;;;;;0.80;0.80;;;;;;;;;;1656144;29;21922;-58
2022/08/27 01:38:01;;;;;;;0.98;0.98;;;;;;;;;;1653053;29;21640;-59
2022/08/27 01:38:53;;;;;;;0.85;0.85;;;;;;;;;;1655807;29;22453;-59
2022/08/27 01:39:46;;;;;;;0.98;0.95;;;;;;;;;;1655566;29;21707;-60
2022/08/27 01:40:39;;;;;;;0.90;0.90;;;;;;;;;;1653163;29;21632;-58
2022/08/27 01:41:30;;;;;;;0.90;0.80;;;;;;;;;;1654406;29;21929;-59
2022/08/27 01:42:29;;;;;;;0.80;0.80;;;;;;;;;;1655963;29;22477;-59
2022/08/27 01:43:20;;;;;;;0.77;0.77;;;;;;;;;;1653224;29;22050;-59
2022/08/27 01:44:12;;;;;;;1.25;1.02;;;;;;;;;;1652821;29;21639;-58
2022/08/27 01:45:07;;;;;;;0.70;0.70;;;;;;;;;;1655342;29;21607;-58
2022/08/27 01:45:59;;;;;;;1.00;1.00;;;;;;;;;;1654623;29;21768;-59
2022/08/27 01:46:50;;;;;;;0.90;0.90;;;;;;;;;;1652640;29;21642;-59
2022/08/27 01:47:43;;;;;;;0.90;0.90;;;;;;;;;;1649493;29;21716;-59
2022/08/27 01:48:34;;;;;;;0.95;0.95;;;;;;;;;;1654288;29;21702;-59
2022/08/27 01:49:26;;;;;;;1.15;0.90;;;;;;;;;;1653565;29;22490;-59
2022/08/27 01:50:20;;;;;;;1.00;1.00;;;;;;;;;;1655583;29;22116;-59
2022/08/27 01:51:12;;;;;;;0.85;0.85;;;;;;;;;;1655158;29;21862;-59
2022/08/27 01:52:04;;;;;;;1.10;1.10;;;;;;;;;;1653311;29;21643;-59
2022/08/27 01:52:57;;;;;;;0.90;0.90;;;;;;;;;;1654142;29;21652;-59
2022/08/27 01:53:48;;;;;;;1.00;1.00;;;;;;;;;;1654605;29;21942;-58
2022/08/27 01:54:40;;;;;;;0.90;0.90;;;;;;;;;;1654261;29;22670;-58
2022/08/27 01:55:34;;;;;;;0.60;0.60;;;;;;;;;;1655711;29;22760;-59
2022/08/27 01:56:26;;;;;;;0.88;0.88;;;;;;;;;;1655748;29;21615;-58
2022/08/27 01:57:18;;;;;;;0.93;0.93;;;;;;;;;;1653982;29;21610;-59
2022/08/27 01:58:10;;;;;;;0.70;0.70;;;;;;;;;;1655479;29;22083;-58
2022/08/27 01:59:02;;;;;;;0.95;0.95;;;;;;;;;;1655368;29;21630;-59
2022/08/27 01:59:56;;;;;;;0.73;0.73;;;;;;;;;;1653117;29;22307;-59
2022/08/27 02:00:51;;;;;;;1.13;1.02;;;;;;;;;;1655648;29;21594;-58
2022/08/27 02:01:43;;;;;;;2.25;1.45;;;;;;;;;;1655875;29;21594;-59
2022/08/27 02:02:35;;;;;;;1.77;0.90;;;;;;;;;;1652909;29;21850;-59
2022/08/27 02:03:28;;;;;;;0.80;0.80;;;;;;;;;;1653168;29;21652;-59
2022/08/27 02:04:19;;;;;;;0.77;0.77;;;;;;;;;;1648570;29;22439;-58
2022/08/27 02:05:12;;;;;;;1.00;0.90;;;;;;;;;;1646040;29;22325;-58
2022/08/27 02:06:06;;;;;;;0.90;0.90;;;;;;;;;;1652734;29;22536;-58
2022/08/27 02:06:58;;;;;;;1.10;0.80;;;;;;;;;;1655438;29;22595;-59
2022/08/27 02:07:50;;;;;;;0.88;0.88;;;;;;;;;;1653965;29;22549;-59
2022/08/27 02:08:42;;;;;;;0.95;0.95;;;;;;;;;;1651517;29;21702;-58
2022/08/27 02:09:33;;;;;;;0.95;0.95;;;;;;;;;;1655460;29;21664;-58
2022/08/27 02:10:29;;;;;;;0.80;0.80;;;;;;;;;;1654604;29;21802;-58
2022/08/27 02:11:22;;;;;;;1.13;1.05;;;;;;;;;;1655544;29;21674;-59
2022/08/27 02:12:14;;;;;;;0.98;0.98;;;;;;;;;;1655429;29;21639;-58
2022/08/27 02:13:07;;;;;;;0.73;0.73;;;;;;;;;;1653514;29;22037;-58
2022/08/27 02:13:59;;;;;;;0.90;0.90;;;;;;;;;;1654050;29;21905;-58
2022/08/27 02:14:51;;;;;;;0.70;0.70;;;;;;;;;;1648470;29;21594;-59
2022/08/27 02:15:44;;;;;;;0.82;0.82;;;;;;;;;;1647752;29;21630;-59
2022/08/27 02:16:35;;;;;;;0.88;0.85;;;;;;;;;;1654499;29;21753;-58
2022/08/27 02:17:28;;;;;;;0.80;0.80;;;;;;;;;;1655681;29;21669;-59
2022/08/27 02:18:19;;;;;;;1.85;0.90;;;;;;;;;;1650431;29;23992;-58
2022/08/27 02:19:12;;;;;;;0.88;0.88;;;;;;;;;;1654245;29;21775;-58
2022/08/27 02:20:05;;;;;;;0.82;0.82;;;;;;;;;;1656020;29;21588;-59
2022/08/27 02:20:58;;;;;;;0.90;0.90;;;;;;;;;;1654294;29;22045;-58
2022/08/27 02:21:49;;;;;;;0.85;0.85;;;;;;;;;;1655643;29;22767;-58
2022/08/27 02:22:42;;;;;;;1.15;0.90;;;;;;;;;;1655873;29;21693;-59
2022/08/27 02:23:33;;;;;;;0.80;0.80;;;;;;;;;;1653544;29;21669;-59
2022/08/27 02:24:25;;;;;;;0.77;0.77;;;;;;;;;;1649060;29;21867;-58
2022/08/27 02:25:20;;;;;;;0.90;0.90;;;;;;;;;;1653267;29;21593;-58
2022/08/27 02:26:13;;;;;;;1.00;1.00;;;;;;;;;;1652412;29;22169;-58
2022/08/27 02:27:05;;;;;;;0.80;0.80;;;;;;;;;;1649044;29;21663;-58
2022/08/27 02:27:59;;;;;;;1.02;0.85;;;;;;;;;;1649317;29;22364;-58
2022/08/27 02:28:51;;;;;;;0.77;0.77;;;;;;;;;;1653553;29;22519;-58
2022/08/27 02:29:43;;;;;;;0.77;0.70;;;;;;;;;;1654902;29;21976;-58
2022/08/27 02:30:36;;;;;;;1.00;1.00;;;;;;;;;;1650190;29;21608;-57
2022/08/27 02:31:28;;;;;;;0.85;0.85;;;;;;;;;;1655368;29;21801;-59
2022/08/27 02:32:20;;;;;;;0.70;0.70;;;;;;;;;;1654966;29;21820;-58
2022/08/27 02:33:13;;;;;;;0.80;0.80;;;;;;;;;;1654724;29;21591;-60
2022/08/27 02:34:04;;;;;;;1.10;1.00;;;;;;;;;;1656286;29;21580;-59
2022/08/27 02:34:57;;;;;;;1.10;1.00;;;;;;;;;;1654435;29;21749;-59
2022/08/27 02:35:48;;;;;;;0.90;0.90;;;;;;;;;;1656235;29;21669;-59
2022/08/27 02:36:41;;;;;;;0.75;0.75;;;;;;;;;;1656606;29;21659;-59
2022/08/27 02:37:32;;;;;;;1.00;0.90;;;;;;;;;;1655215;29;22570;-59
2022/08/27 02:38:24;;;;;;;0.75;0.75;;;;;;;;;;1655254;29;21624;-59
2022/08/27 02:39:16;;;;;;;0.90;0.90;;;;;;;;;;1656528;29;21614;-58
2022/08/27 02:40:10;;;;;;;1.10;1.00;;;;;;;;;;1655689;29;22332;-59
2022/08/27 02:41:02;;;;;;;0.80;0.80;;;;;;;;;;1654715;29;21786;-59
2022/08/27 02:41:54;;;;;;;0.80;0.80;;;;;;;;;;1656632;29;21674;-59
2022/08/27 02:42:47;;;;;;;10.27;1.20;;;;;;;;;;1648530;29;21712;-59
2022/08/27 02:43:39;;;;;;;0.85;0.85;;;;;;;;;;1642622;29;21620;-59
2022/08/27 02:44:30;;;;;;;1.00;0.90;;;;;;;;;;1647511;29;21755;-59
2022/08/27 02:45:23;;;;;;;0.93;0.93;;;;;;;;;;1654007;29;21632;-59
2022/08/27 02:46:14;;;;;;;0.98;0.98;;;;;;;;;;1655112;29;21834;-59
2022/08/27 02:47:06;;;;;;;1.20;1.10;;;;;;;;;;1655920;29;21988;-59
2022/08/27 02:47:58;;;;;;;0.90;0.90;;;;;;;;;;1655974;29;21782;-58
2022/08/27 02:48:50;;;;;;;0.80;0.80;;;;;;;;;;1653877;29;21622;-59
2022/08/27 02:49:41;;;;;;;1.27;0.80;;;;;;;;;;1656626;29;22063;-59
2022/08/27 02:50:34;;;;;;;0.98;0.98;;;;;;;;;;1658165;29;21623;-59
2022/08/27 02:51:25;;;;;;;1.02;1.00;;;;;;;;;;1653979;29;21668;-59
2022/08/27 02:52:18;;;;;;;1.60;0.80;;;;;;;;;;1656427;29;21825;-59
2022/08/27 02:53:09;;;;;;;2.53;0.90;;;;;;;;;;1654875;29;21674;-59
2022/08/27 02:54:02;;;;;;;0.80;0.80;;;;;;;;;;1652860;29;21849;-58
2022/08/27 02:54:54;;;;;;;1.17;1.02;;;;;;;;;;1653961;29;21656;-59
2022/08/27 02:55:46;;;;;;;1.02;1.02;;;;;;;;;;1656385;29;21820;-59
2022/08/27 02:56:38;;;;;;;0.73;0.73;;;;;;;;;;1654780;29;21800;-59
2022/08/27 02:57:31;;;;;;;1.08;0.90;;;;;;;;;;1653462;29;22147;-59
2022/08/27 02:58:23;;;;;;;1.27;1.10;;;;;;;;;;1656357;29;21760;-60
2022/08/27 02:59:16;;;;;;;0.85;0.85;;;;;;;;;;1654928;29;21693;-59
2022/08/27 03:00:11;;;;;;;0.80;0.80;;;;;;;;;;1655563;29;21640;-59
2022/08/27 03:01:05;;;;;;;0.80;0.80;;;;;;;;;;1656097;29;21922;-60
2022/08/27 03:01:56;;;;;;;0.70;0.70;;;;;;;;;;1654708;29;22778;-59
2022/08/27 03:02:49;;;;;;;0.70;0.70;;;;;;;;;;1655010;29;21732;-60
2022/08/27 03:03:40;;;;;;;1.10;1.10;;;;;;;;;;1655027;29;21745;-60
2022/08/27 03:04:32;;;;;;;1.00;0.90;;;;;;;;;;1655007;29;22473;-59
2022/08/27 03:05:25;;;;;;;2.13;1.08;;;;;;;;;;1655817;29;21781;-59
2022/08/27 03:06:17;;;;;;;0.90;0.90;;;;;;;;;;1656461;29;21723;-58
2022/08/27 03:07:08;;;;;;;0.80;0.80;;;;;;;;;;1656496;29;21660;-60
2022/08/27 03:08:02;;;;;;;1.15;0.82;;;;;;;;;;1655580;29;21617;-59
2022/08/27 03:08:53;;;;;;;0.93;0.93;;;;;;;;;;1653437;29;21769;-58
2022/08/27 03:09:45;;;;;;;2.30;1.00;;;;;;;;;;1656162;29;21907;-59
2022/08/27 03:10:37;;;;;;;1.10;1.00;;;;;;;;;;1654390;29;21715;-59
2022/08/27 03:11:30;;;;;;;1.00;1.00;;;;;;;;;;1656554;29;22538;-58
2022/08/27 03:12:23;;;;;;;0.85;0.85;;;;;;;;;;1656339;29;22584;-59
2022/08/27 03:13:15;;;;;;;1.13;0.73;;;;;;;;;;1653923;29;21970;-59
2022/08/27 03:14:08;;;;;;;0.90;0.90;;;;;;;;;;1655655;29;21780;-59
2022/08/27 03:15:00;;;;;;;1.02;0.95;;;;;;;;;;1655818;29;21737;-58
2022/08/27 03:15:52;;;;;;;0.60;0.60;;;;;;;;;;1656181;29;21687;-58
2022/08/27 03:16:44;;;;;;;0.63;0.63;;;;;;;;;;1655592;29;21640;-58
2022/08/27 03:18:45;;;;;;;1.00;0.90;;;;;;;;;;1651261;29;22416;-58
2022/08/27 03:19:36;;;;;;;0.70;0.70;;;;;;;;;;1655583;29;21627;-58
2022/08/27 03:20:28;;;;;;;1.08;1.00;;;;;;;;;;1655587;29;21660;-58
2022/08/27 03:21:23;;;;;;;0.65;0.65;;;;;;;;;;1650257;29;21585;-58
2022/08/27 03:22:15;;;;;;;0.70;0.70;;;;;;;;;;1648176;29;21749;-58
2022/08/27 03:23:06;;;;;;;0.55;0.55;;;;;;;;;;1653945;29;22315;-58
2022/08/27 03:24:00;;;;;;;0.90;0.90;;;;;;;;;;1655004;29;22391;-59
2022/08/27 03:24:51;;;;;;;0.73;0.70;;;;;;;;;;1654713;29;21593;-58
2022/08/27 03:25:45;;;;;;;0.70;0.70;;;;;;;;;;1654999;29;22092;-59
2022/08/27 03:26:36;;;;;;;1.00;1.00;;;;;;;;;;1656439;29;21606;-59
2022/08/27 03:27:28;;;;;;;0.80;0.80;;;;;;;;;;1655379;29;21668;-58
2022/08/27 03:28:23;;;;;;;1.73;0.63;;;;;;;;;;1655135;29;21978;-59
2022/08/27 03:29:16;;;;;;;1.88;0.77;;;;;;;;;;1649930;29;21665;-59
2022/08/27 03:30:12;;;;;;;0.88;0.88;;;;;;;;;;1654883;29;21926;-58
2022/08/27 03:31:08;;;;;;;0.77;0.77;;;;;;;;;;1653893;29;22328;-59
2022/08/27 03:31:59;;;;;;;0.80;0.80;;;;;;;;;;1656962;29;22430;-59
2022/08/27 03:32:52;;;;;;;0.90;0.90;;;;;;;;;;1654120;29;22714;-59
2022/08/27 03:33:43;;;;;;;1.05;1.05;;;;;;;;;;1655324;29;21627;-59
2022/08/27 03:34:35;;;;;;;1.05;0.80;;;;;;;;;;1656294;29;22438;-59
2022/08/27 03:35:27;;;;;;;0.77;0.77;;;;;;;;;;1655016;29;21571;-59
2022/08/27 03:36:19;;;;;;;0.98;0.98;;;;;;;;;;1656298;29;22388;-59
2022/08/27 03:37:10;;;;;;;2.05;1.00;;;;;;;;;;1651451;29;22000;-59
2022/08/27 03:38:02;;;;;;;0.75;0.75;;;;;;;;;;1655068;29;21754;-59
2022/08/27 03:38:54;;;;;;;0.70;0.70;;;;;;;;;;1655189;29;21632;-59
2022/08/27 03:39:46;;;;;;;0.70;0.70;;;;;;;;;;1656937;29;21770;-59
2022/08/27 03:40:38;;;;;;;0.90;0.90;;;;;;;;;;1656406;29;21654;-59
2022/08/27 03:41:29;;;;;;;0.88;0.88;;;;;;;;;;1653922;29;22411;-60
2022/08/27 03:42:21;;;;;;;0.88;0.88;;;;;;;;;;1656343;29;22254;-59
2022/08/27 03:43:14;;;;;;;0.70;0.70;;;;;;;;;;1654735;29;21657;-59
2022/08/27 03:44:06;;;;;;;0.75;0.75;;;;;;;;;;1653041;29;21620;-59
2022/08/27 03:44:59;;;;;;;1.00;1.00;;;;;;;;;;1655926;29;21579;-59
2022/08/27 03:45:52;;;;;;;0.73;0.73;;;;;;;;;;1656052;29;22608;-59
2022/08/27 03:46:44;;;;;;;0.80;0.80;;;;;;;;;;1653704;29;21753;-59
2022/08/27 03:47:36;;;;;;;1.35;0.98;;;;;;;;;;1656178;29;21606;-59
2022/08/27 03:48:28;;;;;;;0.85;0.85;;;;;;;;;;1656033;29;21663;-59
2022/08/27 03:49:22;;;;;;;0.98;0.98;;;;;;;;;;1653501;29;21777;-59
2022/08/27 03:50:13;;;;;;;0.82;0.82;;;;;;;;;;1657303;29;21599;-59
2022/08/27 03:51:07;;;;;;;0.85;0.85;;;;;;;;;;1655813;29;22271;-58
2022/08/27 03:51:59;;;;;;;1.15;1.05;;;;;;;;;;1653661;29;21656;-59
2022/08/27 03:52:51;;;;;;;0.95;0.95;;;;;;;;;;1654666;29;21770;-58
2022/08/27 03:53:43;;;;;;;0.90;0.90;;;;;;;;;;1656256;29;21681;-59
2022/08/27 03:54:36;;;;;;;1.17;1.08;;;;;;;;;;1654116;29;21729;-60
2022/08/27 03:55:27;;;;;;;1.00;1.00;;;;;;;;;;1653311;29;21658;-59
2022/08/27 03:56:19;;;;;;;0.88;0.82;;;;;;;;;;1656178;29;22076;-59
2022/08/27 03:57:11;;;;;;;0.98;0.98;;;;;;;;;;1655340;29;21675;-59
2022/08/27 03:58:04;;;;;;;0.85;0.85;;;;;;;;;;1655014;29;21786;-59
2022/08/27 03:58:55;;;;;;;1.17;0.85;;;;;;;;;;1657087;29;22310;-59
2022/08/27 03:59:47;;;;;;;0.85;0.85;;;;;;;;;;1654758;29;21661;-59
2022/08/27 04:00:41;;;;;;;0.93;0.93;;;;;;;;;;1656532;29;21636;-59
2022/08/27 04:01:33;;;;;;;1.10;1.10;;;;;;;;;;1656126;29;22457;-58
2022/08/27 04:02:24;;;;;;;1.00;1.00;;;;;;;;;;1654634;29;21761;-59
2022/08/27 04:03:17;;;;;;;0.95;0.95;;;;;;;;;;1652725;29;22101;-58
2022/08/27 04:04:08;;;;;;;1.30;1.20;;;;;;;;;;1656016;29;21618;-59
2022/08/27 04:05:00;;;;;;;0.80;0.80;;;;;;;;;;1654661;29;21907;-59
2022/08/27 04:05:52;;;;;;;1.08;0.98;;;;;;;;;;1655151;29;21656;-59
2022/08/27 04:06:44;;;;;;;1.10;1.00;;;;;;;;;;1656270;29;22100;-59
2022/08/27 04:07:37;;;;;;;0.90;0.90;;;;;;;;;;1654443;29;21852;-59
2022/08/27 04:08:29;;;;;;;1.10;1.00;;;;;;;;;;1656322;29;21692;-60
2022/08/27 04:09:20;;;;;;;0.90;0.90;;;;;;;;;;1655909;29;21616;-58
2022/08/27 04:10:13;;;;;;;0.80;0.80;;;;;;;;;;1655646;29;21615;-59
2022/08/27 04:11:06;;;;;;;1.48;1.38;;;;;;;;;;1654361;29;22141;-59
2022/08/27 04:11:58;;;;;;;1.30;1.15;;;;;;;;;;1655838;29;22003;-59
2022/08/27 04:12:49;;;;;;;1.45;1.25;;;;;;;;;;1654875;29;21692;-58
2022/08/27 04:13:42;;;;;;;1.15;1.02;;;;;;;;;;1654679;29;21701;-59
2022/08/27 04:14:34;;;;;;;0.98;0.98;;;;;;;;;;1649902;29;21947;-59
2022/08/27 04:15:26;;;;;;;1.45;1.15;;;;;;;;;;1654757;29;21642;-59
2022/08/27 04:16:19;;;;;;;3.10;1.08;;;;;;;;;;1654236;29;21791;-59
2022/08/27 04:17:11;;;;;;;1.38;1.27;;;;;;;;;;1649025;29;21573;-59
2022/08/27 04:18:03;;;;;;;1.00;1.00;;;;;;;;;;1648027;29;21672;-59
2022/08/27 04:18:55;;;;;;;1.10;1.10;;;;;;;;;;1652008;29;21800;-59
2022/08/27 04:19:46;;;;;;;1.40;1.30;;;;;;;;;;1656690;29;22735;-58
2022/08/27 04:20:39;;;;;;;1.00;1.00;;;;;;;;;;1656429;29;21635;-59
2022/08/27 04:21:31;;;;;;;1.30;1.20;;;;;;;;;;1653610;29;22002;-59
2022/08/27 04:22:24;;;;;;;1.40;1.30;;;;;;;;;;1657352;29;21724;-59
2022/08/27 04:23:15;;;;;;;1.00;1.00;;;;;;;;;;1654245;29;22554;-59
2022/08/27 04:24:09;;;;;;;1.10;1.10;;;;;;;;;;1653257;29;21758;-59
2022/08/27 04:25:01;;;;;;;1.58;1.25;;;;;;;;;;1655613;29;21666;-59
2022/08/27 04:25:53;;;;;;;1.40;1.30;;;;;;;;;;1656076;29;21627;-59
2022/08/27 04:26:46;;;;;;;1.40;1.30;;;;;;;;;;1653489;29;22229;-59
2022/08/27 04:27:38;;;;;;;1.38;1.30;;;;;;;;;;1656102;29;22288;-59
2022/08/27 04:28:29;;;;;;;1.38;1.27;;;;;;;;;;1655996;29;21636;-59
2022/08/27 04:29:22;;;;;;;1.30;1.20;;;;;;;;;;1653968;29;21648;-59
2022/08/27 04:30:14;;;;;;;1.48;1.38;;;;;;;;;;1655924;29;22394;-58
2022/08/27 04:31:08;;;;;;;1.23;1.13;;;;;;;;;;1655529;29;22361;-59
2022/08/27 04:32:01;;;;;;;2.95;1.45;;;;;;;;;;1653552;29;21602;-59
2022/08/27 04:32:53;;;;;;;1.70;1.23;;;;;;;;;;1651841;29;21606;-58
2022/08/27 04:33:44;;;;;;;1.20;1.20;;;;;;;;;;1654749;29;22531;-59
2022/08/27 04:34:37;;;;;;;1.40;1.30;;;;;;;;;;1655536;29;22359;-59
2022/08/27 04:35:28;;;;;;;1.17;1.10;;;;;;;;;;1655751;29;22016;-59
2022/08/27 04:36:21;;;;;;;1.02;1.02;;;;;;;;;;1655924;29;21613;-59
2022/08/27 04:37:12;;;;;;;1.60;1.50;;;;;;;;;;1656004;29;21992;-59
2022/08/27 04:38:05;;;;;;;1.58;1.48;;;;;;;;;;1653689;29;22455;-59
2022/08/27 04:38:56;;;;;;;1.40;1.30;;;;;;;;;;1656055;29;22148;-59
2022/08/27 04:39:48;;;;;;;1.50;1.40;;;;;;;;;;1656120;29;22675;-58
2022/08/27 04:41:51;;;;;;;1.45;1.35;;;;;;;;;;1649075;29;21850;-59
2022/08/27 04:42:43;;;;;;;1.67;1.58;;;;;;;;;;1655229;29;21676;-59
2022/08/27 04:43:35;;;;;;;1.42;1.33;;;;;;;;;;1653568;29;22494;-59
2022/08/27 04:44:29;;;;;;;1.52;1.40;;;;;;;;;;1655935;29;21598;-59
2022/08/27 04:45:22;;;;;;;1.73;1.63;;;;;;;;;;1655466;29;21649;-59
2022/08/27 04:46:13;;;;;;;1.30;1.30;;;;;;;;;;1653621;29;21642;-59
2022/08/27 04:47:07;;;;;;;1.30;1.30;;;;;;;;;;1655634;29;22272;-59
2022/08/27 04:47:58;;;;;;;1.67;1.58;;;;;;;;;;1655463;29;22039;-59
2022/08/27 04:48:50;;;;;;;1.70;1.60;;;;;;;;;;1653373;29;22256;-59
2022/08/27 04:49:42;;;;;;;1.25;1.25;;;;;;;;;;1655947;29;22377;-59
2022/08/27 04:50:34;;;;;;;1.60;1.50;;;;;;;;;;1656212;29;21656;-59
2022/08/27 04:51:27;;;;;;;1.60;1.50;;;;;;;;;;1652820;29;21653;-59
2022/08/27 04:52:19;;;;;;;1.73;1.63;;;;;;;;;;1655936;29;22093;-59
2022/08/27 04:53:11;;;;;;;1.55;1.45;;;;;;;;;;1654579;29;21742;-59
2022/08/27 04:54:05;;;;;;;1.70;1.60;;;;;;;;;;1652411;29;22639;-60
2022/08/27 04:54:57;;;;;;;1.70;1.60;;;;;;;;;;1655559;29;21620;-59
2022/08/27 04:55:51;;;;;;;1.60;1.50;;;;;;;;;;1655982;29;22404;-59
2022/08/27 04:56:43;;;;;;;1.70;1.60;;;;;;;;;;1653696;29;22067;-58
2022/08/27 04:57:36;;;;;;;1.45;1.42;;;;;;;;;;1655958;29;22211;-58
2022/08/27 04:58:27;;;;;;;1.52;1.42;;;;;;;;;;1656022;29;22083;-59
2022/08/27 04:59:20;;;;;;;1.55;1.45;;;;;;;;;;1653126;29;21621;-59
2022/08/27 05:00:13;;;;;;;1.70;1.60;;;;;;;;;;1655941;29;22235;-59
2022/08/27 05:01:06;;;;;;;1.38;1.27;;;;;;;;;;1655320;29;22017;-59
2022/08/27 05:01:57;;;;;;;1.52;1.42;;;;;;;;;;1654154;29;22321;-58
2022/08/27 05:02:51;;;;;;;1.63;1.52;;;;;;;;;;1654405;29;22010;-58
2022/08/27 05:03:43;;;;;;;1.83;1.73;;;;;;;;;;1654114;29;22567;-58
2022/08/27 05:04:38;;;;;;;1.80;1.70;;;;;;;;;;1653914;29;21858;-59
2022/08/27 05:05:30;;;;;;;1.70;1.60;;;;;;;;;;1653218;29;21615;-58
2022/08/27 05:06:23;;;;;;;1.58;1.48;;;;;;;;;;1656716;29;21603;-59
2022/08/27 05:07:14;;;;;;;1.70;1.60;;;;;;;;;;1655813;29;21690;-58
2022/08/27 05:08:06;;;;;;;1.70;1.60;;;;;;;;;;1653055;29;22483;-58
2022/08/27 05:08:57;;;;;;;1.73;1.63;;;;;;;;;;1655353;29;21609;-59
2022/08/27 05:09:51;;;;;;;1.90;1.80;;;;;;;;;;1655787;29;21736;-58
2022/08/27 05:10:44;;;;;;;1.60;1.50;;;;;;;;;;1653413;29;21622;-58
2022/08/27 05:11:37;;;;;;;1.67;1.58;;;;;;;;;;1655989;29;21651;-59
2022/08/27 05:12:28;;;;;;;1.95;1.85;;;;;;;;;;1655828;29;21666;-58
2022/08/27 05:13:22;;;;;;;1.67;1.58;;;;;;;;;;1653219;29;21798;-58
2022/08/27 05:14:15;;;;;;;1.55;1.45;;;;;;;;;;1655845;29;21895;-59
2022/08/27 05:15:08;;;;;;;1.67;1.38;;;;;;;;;;1655383;29;21619;-58
2022/08/27 05:16:01;;;;;;;2.20;2.00;;;;;;;;;;1653380;29;21708;-58
2022/08/27 05:16:53;;;;;;;1.63;1.52;;;;;;;;;;1654625;29;21706;-58
2022/08/27 05:17:46;;;;;;;1.70;1.60;;;;;;;;;;1655880;29;21638;-58
2022/08/27 05:18:41;;;;;;;1.70;1.60;;;;;;;;;;1653645;29;22287;-58